Aurora, SD

2:54 AM CDT on September 02, 2014 (GMT -0500)
Pipestone Municipal | Change Station
CLOSE
Current Station
Airport
Location: Pipestone,
Elevation: 1736 ft
Nearby Weather Stations

Elev 1736 ft 43.98 °N, 96.30 °W | Updated 20 minutes ago

Light Drizzle
Light Drizzle
61 °F
Feels Like 61 °F
N
5
Wind Variable Wind from NW

Today
High -- | Low -- °F
--% Chance of Precip.
Yesterday
High -- | Low -- °F
Precip. -- in
6:50 AM 8:01 PM
Waxing Crescent, 49% visible
Pressure 29.90 in
Visibility 10.0 miles
Clouds Overcast 9000 ft
Dew Point 54 °F
Humidity 77%
Rainfall 0.00 in
Snow Depth Not available.
UV 0 out of 12
Pollen 7.80 out of 12
Air Quality Not available.
Flu Activity Not available.
METAR KPQN 020734Z AUTO 32004KT 10SM -DZ OVC090 16/12 A2990 RMK AO2

More Conditions Fewer Conditions

Pressure 29.90 in
Visibility 10.0 miles
Clouds Overcast 9000 ft
Dew Point 54 °F
Humidity 77%
Rainfall 0.00 in
Snow Depth Not available.
UV 0 out of 12
Pollen 7.80 out of 12
Air Quality Not available.
Flu Activity Not available.
METAR KPQN 020734Z AUTO 32004KT 10SM -DZ OVC090 16/12 A2990 RMK AO2

More Conditions Fewer Conditions

10-Day Weather Forecast

Almanac

Astronomy

Sep. 02, 2014 Rise Set
Actual Time 6:50 AM CDT 8:01 PM CDT
Civil Twilight 6:21 AM CDT 8:30 PM CDT
Nautical Twilight 5:45 AM CDT 9:06 PM CDT
Astronomical Twilight 5:07 AM CDT 9:44 PM CDT
Moon 2:52 PM CDT No Moon Set
Length of Visible Light 14h 09m
Length of Day
13h 10m
Tomorrow will be 2m 57s shorter.
Waxing Crescent, 49% of the Moon is Illuminated
Today
Waxing Crescent
Sep 2
First Quarter
Sep 8
Full
Sep 15
Last Quarter
Sep 24
New

Today's Extremes

State Highs State Lows

Community

WunderPhotos

Upload Photos

1,749,589 photos uploaded!

WunderBlogs® & News

Nearby

Snow Depth

Station Depth Elevation
North Rapid Creek 0 in 6130 ft
Blind Park 1 in 6890 ft

Earthquake Activity

City Distance Mag. Time & Date
No recent earthquake activity has been reported nearby.
Minimum magnitude displayed is 2.5.

Coastal Water Temperatures

Place Temperature
No Stations Reporting

Nearby Weather Stations